sensor_id;sensor_type;location;lat;lon;timestamp;temperature;humidity
52973;DHT22;38837;48.916;2.336;2023-11-21T00:01:59;31.30;33.40
52973;DHT22;38837;48.916;2.336;2023-11-21T00:04:01;31.20;33.40
52973;DHT22;38837;48.916;2.336;2023-11-21T00:06:03;31.20;33.40
52973;DHT22;38837;48.916;2.336;2023-11-21T00:08:05;31.30;33.50
52973;DHT22;38837;48.916;2.336;2023-11-21T00:10:08;31.30;33.40
52973;DHT22;38837;48.916;2.336;2023-11-21T00:12:11;31.30;33.40
52973;DHT22;38837;48.916;2.336;2023-11-21T00:14:15;31.30;33.30
52973;DHT22;38837;48.916;2.336;2023-11-21T00:16:17;31.30;33.30
52973;DHT22;38837;48.916;2.336;2023-11-21T00:18:21;31.30;33.30
52973;DHT22;38837;48.916;2.336;2023-11-21T00:20:22;31.30;33.30
52973;DHT22;38837;48.916;2.336;2023-11-21T00:22:25;31.30;33.40
52973;DHT22;38837;48.916;2.336;2023-11-21T00:24:27;31.30;33.40
52973;DHT22;38837;48.916;2.336;2023-11-21T00:26:29;31.30;33.40
52973;DHT22;38837;48.916;2.336;2023-11-21T00:28:33;31.30;33.50
52973;DHT22;38837;48.916;2.336;2023-11-21T00:30:34;31.30;33.40
52973;DHT22;38837;48.916;2.336;2023-11-21T00:32:37;31.30;33.40
52973;DHT22;38837;48.916;2.336;2023-11-21T00:34:39;31.30;33.40
52973;DHT22;38837;48.916;2.336;2023-11-21T00:36:41;31.30;33.40
52973;DHT22;38837;48.916;2.336;2023-11-21T00:38:43;31.30;33.30
52973;DHT22;38837;48.916;2.336;2023-11-21T00:40:46;31.40;33.40
52973;DHT22;38837;48.916;2.336;2023-11-21T00:42:47;31.40;33.30
52973;DHT22;38837;48.916;2.336;2023-11-21T00:44:50;31.30;33.20
52973;DHT22;38837;48.916;2.336;2023-11-21T00:46:51;31.40;33.30
52973;DHT22;38837;48.916;2.336;2023-11-21T00:48:54;31.40;33.30
52973;DHT22;38837;48.916;2.336;2023-11-21T00:50:55;31.30;33.30
52973;DHT22;38837;48.916;2.336;2023-11-21T00:52:59;31.30;33.30
52973;DHT22;38837;48.916;2.336;2023-11-21T00:55:00;31.30;33.30
52973;DHT22;38837;48.916;2.336;2023-11-21T00:57:03;31.30;33.40
52973;DHT22;38837;48.916;2.336;2023-11-21T00:59:05;31.30;33.40
52973;DHT22;38837;48.916;2.336;2023-11-21T01:01:07;31.30;33.30
52973;DHT22;38837;48.916;2.336;2023-11-21T01:03:09;31.30;33.30
52973;DHT22;38837;48.916;2.336;2023-11-21T01:05:11;31.30;33.30
52973;DHT22;38837;48.916;2.336;2023-11-21T01:07:13;31.30;33.30
52973;DHT22;38837;48.916;2.336;2023-11-21T01:09:15;31.30;33.30
52973;DHT22;38837;48.916;2.336;2023-11-21T01:11:20;31.30;33.40
52973;DHT22;38837;48.916;2.336;2023-11-21T01:13:21;31.30;33.40
52973;DHT22;38837;48.916;2.336;2023-11-21T01:15:23;31.30;33.30
52973;DHT22;38837;48.916;2.336;2023-11-21T01:17:27;31.20;33.30
52973;DHT22;38837;48.916;2.336;2023-11-21T01:19:29;31.20;33.40
52973;DHT22;38837;48.916;2.336;2023-11-21T01:21:31;31.20;33.40
52973;DHT22;38837;48.916;2.336;2023-11-21T01:23:33;31.20;33.40
52973;DHT22;38837;48.916;2.336;2023-11-21T01:25:35;31.30;33.40
52973;DHT22;38837;48.916;2.336;2023-11-21T01:27:37;31.30;33.30
52973;DHT22;38837;48.916;2.336;2023-11-21T01:29:39;31.30;33.80
52973;DHT22;38837;48.916;2.336;2023-11-21T01:31:41;31.30;33.20
52973;DHT22;38837;48.916;2.336;2023-11-21T01:33:44;31.30;33.20
52973;DHT22;38837;48.916;2.336;2023-11-21T01:35:46;31.30;33.20
52973;DHT22;38837;48.916;2.336;2023-11-21T01:37:48;31.30;33.20
52973;DHT22;38837;48.916;2.336;2023-11-21T01:39:50;31.30;33.30
52973;DHT22;38837;48.916;2.336;2023-11-21T01:41:52;31.20;33.20
52973;DHT22;38837;48.916;2.336;2023-11-21T01:43:55;31.20;33.30
52973;DHT22;38837;48.916;2.336;2023-11-21T01:45:57;31.20;33.30
52973;DHT22;38837;48.916;2.336;2023-11-21T01:48:00;31.30;33.50
52973;DHT22;38837;48.916;2.336;2023-11-21T01:50:07;31.30;33.30
52973;DHT22;38837;48.916;2.336;2023-11-21T01:52:09;31.30;33.20
52973;DHT22;38837;48.916;2.336;2023-11-21T01:54:12;31.40;33.20
52973;DHT22;38837;48.916;2.336;2023-11-21T01:56:19;31.30;33.20
52973;DHT22;38837;48.916;2.336;2023-11-21T01:58:21;31.40;33.20
52973;DHT22;38837;48.916;2.336;2023-11-21T02:00:23;31.30;33.20
52973;DHT22;38837;48.916;2.336;2023-11-21T02:02:26;31.30;33.20
52973;DHT22;38837;48.916;2.336;2023-11-21T02:04:27;31.20;33.30
52973;DHT22;38837;48.916;2.336;2023-11-21T02:06:30;31.20;33.30
52973;DHT22;38837;48.916;2.336;2023-11-21T02:08:32;31.20;33.30
52973;DHT22;38837;48.916;2.336;2023-11-21T02:10:35;31.20;33.20
52973;DHT22;38837;48.916;2.336;2023-11-21T02:12:38;31.30;33.30
52973;DHT22;38837;48.916;2.336;2023-11-21T02:14:40;31.40;33.20
52973;DHT22;38837;48.916;2.336;2023-11-21T02:16:42;31.40;33.20
52973;DHT22;38837;48.916;2.336;2023-11-21T02:18:47;31.40;33.20
52973;DHT22;38837;48.916;2.336;2023-11-21T02:20:50;31.40;33.20
52973;DHT22;38837;48.916;2.336;2023-11-21T02:22:56;31.40;33.20
52973;DHT22;38837;48.916;2.336;2023-11-21T02:25:03;31.40;33.20
52973;DHT22;38837;48.916;2.336;2023-11-21T02:27:05;31.30;33.10
52973;DHT22;38837;48.916;2.336;2023-11-21T02:29:08;31.30;33.20
52973;DHT22;38837;48.916;2.336;2023-11-21T02:31:13;31.20;33.20
52973;DHT22;38837;48.916;2.336;2023-11-21T02:33:15;31.30;33.20
52973;DHT22;38837;48.916;2.336;2023-11-21T02:35:17;31.20;33.30
52973;DHT22;38837;48.916;2.336;2023-11-21T02:37:19;31.20;33.20
52973;DHT22;38837;48.916;2.336;2023-11-21T02:39:21;31.20;33.20
52973;DHT22;38837;48.916;2.336;2023-11-21T02:41:26;31.30;33.20
52973;DHT22;38837;48.916;2.336;2023-11-21T02:43:28;31.30;33.20
52973;DHT22;38837;48.916;2.336;2023-11-21T02:45:30;31.30;33.20
52973;DHT22;38837;48.916;2.336;2023-11-21T02:47:32;31.30;33.10
52973;DHT22;38837;48.916;2.336;2023-11-21T02:49:34;31.30;33.20
52973;DHT22;38837;48.916;2.336;2023-11-21T02:51:37;31.30;33.20
52973;DHT22;38837;48.916;2.336;2023-11-21T02:53:42;31.20;33.20
52973;DHT22;38837;48.916;2.336;2023-11-21T02:55:44;31.20;33.20
52973;DHT22;38837;48.916;2.336;2023-11-21T02:57:45;31.20;33.80
52973;DHT22;38837;48.916;2.336;2023-11-21T02:59:47;31.20;33.20
52973;DHT22;38837;48.916;2.336;2023-11-21T03:01:49;31.20;33.20
52973;DHT22;38837;48.916;2.336;2023-11-21T03:03:51;31.30;33.20
52973;DHT22;38837;48.916;2.336;2023-11-21T03:05:53;31.20;33.10
52973;DHT22;38837;48.916;2.336;2023-11-21T03:07:55;31.30;33.20
52973;DHT22;38837;48.916;2.336;2023-11-21T03:09:57;31.30;33.20
52973;DHT22;38837;48.916;2.336;2023-11-21T03:11:59;31.30;33.20
52973;DHT22;38837;48.916;2.336;2023-11-21T03:14:01;31.20;33.10
52973;DHT22;38837;48.916;2.336;2023-11-21T03:16:03;31.20;33.70
52973;DHT22;38837;48.916;2.336;2023-11-21T03:18:05;31.20;33.20
52973;DHT22;38837;48.916;2.336;2023-11-21T03:20:07;31.20;33.20
52973;DHT22;38837;48.916;2.336;2023-11-21T03:22:13;31.20;33.20
52973;DHT22;38837;48.916;2.336;2023-11-21T03:24:15;31.10;33.20
52973;DHT22;38837;48.916;2.336;2023-11-21T03:26:21;31.20;33.20
52973;DHT22;38837;48.916;2.336;2023-11-21T03:28:23;31.30;33.20
52973;DHT22;38837;48.916;2.336;2023-11-21T03:30:25;31.30;33.20
52973;DHT22;38837;48.916;2.336;2023-11-21T03:32:27;31.30;33.10
52973;DHT22;38837;48.916;2.336;2023-11-21T03:34:29;31.30;33.20
52973;DHT22;38837;48.916;2.336;2023-11-21T03:36:31;31.30;33.20
52973;DHT22;38837;48.916;2.336;2023-11-21T03:38:32;31.20;33.10
52973;DHT22;38837;48.916;2.336;2023-11-21T03:40:35;31.20;33.10
52973;DHT22;38837;48.916;2.336;2023-11-21T03:42:37;31.20;33.10
52973;DHT22;38837;48.916;2.336;2023-11-21T03:44:39;31.20;33.20
52973;DHT22;38837;48.916;2.336;2023-11-21T03:46:40;31.20;33.20
52973;DHT22;38837;48.916;2.336;2023-11-21T03:48:42;31.20;33.20
52973;DHT22;38837;48.916;2.336;2023-11-21T03:50:44;31.30;33.20
52973;DHT22;38837;48.916;2.336;2023-11-21T03:52:46;31.30;33.20
52973;DHT22;38837;48.916;2.336;2023-11-21T03:54:48;31.30;33.20
52973;DHT22;38837;48.916;2.336;2023-11-21T03:56:50;31.30;33.10
52973;DHT22;38837;48.916;2.336;2023-11-21T03:58:52;31.30;33.10
52973;DHT22;38837;48.916;2.336;2023-11-21T04:00:53;31.30;33.20
52973;DHT22;38837;48.916;2.336;2023-11-21T04:02:55;31.20;33.10
52973;DHT22;38837;48.916;2.336;2023-11-21T04:04:57;31.20;33.10
52973;DHT22;38837;48.916;2.336;2023-11-21T04:06:59;31.20;33.20
52973;DHT22;38837;48.916;2.336;2023-11-21T04:09:02;31.20;33.20
52973;DHT22;38837;48.916;2.336;2023-11-21T04:11:06;31.20;33.20
52973;DHT22;38837;48.916;2.336;2023-11-21T04:13:07;31.20;33.20
52973;DHT22;38837;48.916;2.336;2023-11-21T04:15:10;31.20;33.20
52973;DHT22;38837;48.916;2.336;2023-11-21T04:17:12;31.20;33.10
52973;DHT22;38837;48.916;2.336;2023-11-21T04:19:14;31.20;33.10
52973;DHT22;38837;48.916;2.336;2023-11-21T04:21:16;31.30;33.10
52973;DHT22;38837;48.916;2.336;2023-11-21T04:23:18;31.30;33.10
52973;DHT22;38837;48.916;2.336;2023-11-21T04:25:20;31.30;33.10
52973;DHT22;38837;48.916;2.336;2023-11-21T04:27:22;31.30;33.10
52973;DHT22;38837;48.916;2.336;2023-11-21T04:29:24;31.30;33.10
52973;DHT22;38837;48.916;2.336;2023-11-21T04:31:26;31.20;33.10
52973;DHT22;38837;48.916;2.336;2023-11-21T04:33:28;31.20;33.10
52973;DHT22;38837;48.916;2.336;2023-11-21T04:35:30;31.20;33.20
52973;DHT22;38837;48.916;2.336;2023-11-21T04:37:32;31.20;33.20
52973;DHT22;38837;48.916;2.336;2023-11-21T04:39:34;31.20;33.20
52973;DHT22;38837;48.916;2.336;2023-11-21T04:41:36;31.20;33.20
52973;DHT22;38837;48.916;2.336;2023-11-21T04:43:40;31.30;33.10
52973;DHT22;38837;48.916;2.336;2023-11-21T04:45:44;31.30;33.10
52973;DHT22;38837;48.916;2.336;2023-11-21T04:47:46;31.30;33.10
52973;DHT22;38837;48.916;2.336;2023-11-21T04:49:48;31.30;33.10
52973;DHT22;38837;48.916;2.336;2023-11-21T04:51:50;31.30;33.10
52973;DHT22;38837;48.916;2.336;2023-11-21T04:53:52;31.20;33.10
52973;DHT22;38837;48.916;2.336;2023-11-21T04:55:53;31.20;33.10
52973;DHT22;38837;48.916;2.336;2023-11-21T04:57:55;31.20;33.10
52973;DHT22;38837;48.916;2.336;2023-11-21T04:59:57;31.20;33.10
52973;DHT22;38837;48.916;2.336;2023-11-21T05:01:59;31.20;33.10
52973;DHT22;38837;48.916;2.336;2023-11-21T05:04:02;31.30;33.20
52973;DHT22;38837;48.916;2.336;2023-11-21T05:06:04;31.30;33.20
52973;DHT22;38837;48.916;2.336;2023-11-21T05:08:06;31.30;33.10
52973;DHT22;38837;48.916;2.336;2023-11-21T05:10:09;31.30;33.00
52973;DHT22;38837;48.916;2.336;2023-11-21T05:12:16;31.40;33.10
52973;DHT22;38837;48.916;2.336;2023-11-21T05:14:18;31.30;33.00
52973;DHT22;38837;48.916;2.336;2023-11-21T05:16:20;31.30;33.10
52973;DHT22;38837;48.916;2.336;2023-11-21T05:18:22;31.20;33.10
52973;DHT22;38837;48.916;2.336;2023-11-21T05:20:24;31.20;33.10
52973;DHT22;38837;48.916;2.336;2023-11-21T05:22:26;31.10;33.20
52973;DHT22;38837;48.916;2.336;2023-11-21T05:24:28;31.10;33.20
52973;DHT22;38837;48.916;2.336;2023-11-21T05:26:30;31.20;33.30
52973;DHT22;38837;48.916;2.336;2023-11-21T05:28:32;31.20;33.30
52973;DHT22;38837;48.916;2.336;2023-11-21T05:30:34;31.30;33.30
52973;DHT22;38837;48.916;2.336;2023-11-21T05:32:36;31.30;33.20
52973;DHT22;38837;48.916;2.336;2023-11-21T05:34:37;31.30;33.20
52973;DHT22;38837;48.916;2.336;2023-11-21T05:36:39;31.30;33.10
52973;DHT22;38837;48.916;2.336;2023-11-21T05:38:41;31.30;33.10
52973;DHT22;38837;48.916;2.336;2023-11-21T05:40:43;31.30;33.10
52973;DHT22;38837;48.916;2.336;2023-11-21T05:42:45;31.30;33.20
52973;DHT22;38837;48.916;2.336;2023-11-21T05:44:47;31.20;33.10
52973;DHT22;38837;48.916;2.336;2023-11-21T05:46:49;31.20;33.20
52973;DHT22;38837;48.916;2.336;2023-11-21T05:48:52;31.20;33.30
52973;DHT22;38837;48.916;2.336;2023-11-21T05:50:53;31.20;33.20
52973;DHT22;38837;48.916;2.336;2023-11-21T05:52:55;31.30;33.30
52973;DHT22;38837;48.916;2.336;2023-11-21T05:54:57;31.30;33.30
52973;DHT22;38837;48.916;2.336;2023-11-21T05:56:59;31.30;33.20
52973;DHT22;38837;48.916;2.336;2023-11-21T05:59:01;31.30;33.20
52973;DHT22;38837;48.916;2.336;2023-11-21T06:01:06;31.30;33.20
52973;DHT22;38837;48.916;2.336;2023-11-21T06:03:10;31.30;33.20
52973;DHT22;38837;48.916;2.336;2023-11-21T06:05:13;31.30;33.20
52973;DHT22;38837;48.916;2.336;2023-11-21T06:07:14;31.30;33.20
52973;DHT22;38837;48.916;2.336;2023-11-21T06:09:16;31.20;33.20
52973;DHT22;38837;48.916;2.336;2023-11-21T06:11:18;31.20;33.30
52973;DHT22;38837;48.916;2.336;2023-11-21T06:13:20;31.20;33.30
52973;DHT22;38837;48.916;2.336;2023-11-21T06:15:26;31.20;33.30
52973;DHT22;38837;48.916;2.336;2023-11-21T06:17:27;31.30;33.40
52973;DHT22;38837;48.916;2.336;2023-11-21T06:19:30;31.30;33.30
52973;DHT22;38837;48.916;2.336;2023-11-21T06:21:32;31.30;33.30
52973;DHT22;38837;48.916;2.336;2023-11-21T06:23:35;31.30;33.30
52973;DHT22;38837;48.916;2.336;2023-11-21T06:25:37;31.30;33.20
52973;DHT22;38837;48.916;2.336;2023-11-21T06:27:41;31.30;33.30
52973;DHT22;38837;48.916;2.336;2023-11-21T06:29:43;31.30;33.30
52973;DHT22;38837;48.916;2.336;2023-11-21T06:31:45;31.30;33.40
52973;DHT22;38837;48.916;2.336;2023-11-21T06:33:48;31.20;33.30
52973;DHT22;38837;48.916;2.336;2023-11-21T06:35:50;31.20;33.40
52973;DHT22;38837;48.916;2.336;2023-11-21T06:37:51;31.20;33.40
52973;DHT22;38837;48.916;2.336;2023-11-21T06:39:54;31.20;33.40
52973;DHT22;38837;48.916;2.336;2023-11-21T06:41:56;31.20;33.40
52973;DHT22;38837;48.916;2.336;2023-11-21T06:43:57;31.30;33.40
52973;DHT22;38837;48.916;2.336;2023-11-21T06:46:00;31.30;33.40
52973;DHT22;38837;48.916;2.336;2023-11-21T06:48:02;31.30;33.40
52973;DHT22;38837;48.916;2.336;2023-11-21T06:50:05;31.30;33.40
52973;DHT22;38837;48.916;2.336;2023-11-21T06:52:08;31.30;33.30
52973;DHT22;38837;48.916;2.336;2023-11-21T06:54:10;31.30;33.30
52973;DHT22;38837;48.916;2.336;2023-11-21T06:56:18;31.20;33.40
52973;DHT22;38837;48.916;2.336;2023-11-21T06:58:20;31.30;33.50
52973;DHT22;38837;48.916;2.336;2023-11-21T07:00:22;31.20;33.40
52973;DHT22;38837;48.916;2.336;2023-11-21T07:02:24;31.20;33.50
52973;DHT22;38837;48.916;2.336;2023-11-21T07:04:26;31.20;33.50
52973;DHT22;38837;48.916;2.336;2023-11-21T07:06:28;31.20;33.40
52973;DHT22;38837;48.916;2.336;2023-11-21T07:08:30;31.30;33.50
52973;DHT22;38837;48.916;2.336;2023-11-21T07:10:32;31.30;33.40
52973;DHT22;38837;48.916;2.336;2023-11-21T07:12:34;31.30;33.40
52973;DHT22;38837;48.916;2.336;2023-11-21T07:14:37;31.40;33.40
52973;DHT22;38837;48.916;2.336;2023-11-21T07:16:40;31.30;33.40
52973;DHT22;38837;48.916;2.336;2023-11-21T07:18:42;31.30;33.40
52973;DHT22;38837;48.916;2.336;2023-11-21T07:20:44;31.30;33.50
52973;DHT22;38837;48.916;2.336;2023-11-21T07:22:46;31.20;33.50
52973;DHT22;38837;48.916;2.336;2023-11-21T07:24:49;31.20;33.50
52973;DHT22;38837;48.916;2.336;2023-11-21T07:26:52;31.20;33.60
52973;DHT22;38837;48.916;2.336;2023-11-21T07:28:58;31.20;33.60
52973;DHT22;38837;48.916;2.336;2023-11-21T07:31:01;31.20;34.10
52973;DHT22;38837;48.916;2.336;2023-11-21T07:33:03;31.20;33.50
52973;DHT22;38837;48.916;2.336;2023-11-21T07:35:05;31.30;33.50
52973;DHT22;38837;48.916;2.336;2023-11-21T07:37:08;31.30;33.50
52973;DHT22;38837;48.916;2.336;2023-11-21T07:39:10;31.30;33.50
52973;DHT22;38837;48.916;2.336;2023-11-21T07:41:12;31.30;33.40
52973;DHT22;38837;48.916;2.336;2023-11-21T07:43:31;31.30;33.50
52973;DHT22;38837;48.916;2.336;2023-11-21T07:45:37;31.40;33.50
52973;DHT22;38837;48.916;2.336;2023-11-21T07:47:38;31.30;33.50
52973;DHT22;38837;48.916;2.336;2023-11-21T07:49:41;31.30;33.50
52973;DHT22;38837;48.916;2.336;2023-11-21T07:51:45;31.30;33.60
52973;DHT22;38837;48.916;2.336;2023-11-21T07:53:47;31.30;33.60
52973;DHT22;38837;48.916;2.336;2023-11-21T07:55:49;31.30;33.50
52973;DHT22;38837;48.916;2.336;2023-11-21T07:57:51;31.30;33.50
52973;DHT22;38837;48.916;2.336;2023-11-21T07:59:53;31.40;33.50
52973;DHT22;38837;48.916;2.336;2023-11-21T08:01:58;31.40;33.50
52973;DHT22;38837;48.916;2.336;2023-11-21T08:04:00;31.40;33.50
52973;DHT22;38837;48.916;2.336;2023-11-21T08:06:07;31.40;33.50
52973;DHT22;38837;48.916;2.336;2023-11-21T08:08:09;31.40;33.50
52973;DHT22;38837;48.916;2.336;2023-11-21T08:10:10;31.30;33.50
52973;DHT22;38837;48.916;2.336;2023-11-21T08:12:12;31.30;33.50
52973;DHT22;38837;48.916;2.336;2023-11-21T08:14:14;31.30;33.60
52973;DHT22;38837;48.916;2.336;2023-11-21T08:16:17;31.30;33.60
52973;DHT22;38837;48.916;2.336;2023-11-21T08:18:18;31.30;33.60
52973;DHT22;38837;48.916;2.336;2023-11-21T08:20:20;31.30;33.60
52973;DHT22;38837;48.916;2.336;2023-11-21T08:22:24;31.30;33.60
52973;DHT22;38837;48.916;2.336;2023-11-21T08:24:26;31.40;33.60
52973;DHT22;38837;48.916;2.336;2023-11-21T08:26:29;31.40;33.50
52973;DHT22;38837;48.916;2.336;2023-11-21T08:28:31;31.40;33.50
52973;DHT22;38837;48.916;2.336;2023-11-21T08:30:33;31.40;33.50
52973;DHT22;38837;48.916;2.336;2023-11-21T08:32:36;31.40;33.50
52973;DHT22;38837;48.916;2.336;2023-11-21T08:34:38;31.30;33.50
52973;DHT22;38837;48.916;2.336;2023-11-21T08:36:45;31.30;33.50
52973;DHT22;38837;48.916;2.336;2023-11-21T08:38:47;31.30;33.60
52973;DHT22;38837;48.916;2.336;2023-11-21T08:40:50;31.20;33.50
52973;DHT22;38837;48.916;2.336;2023-11-21T08:42:52;31.30;33.60
52973;DHT22;38837;48.916;2.336;2023-11-21T08:44:54;31.30;33.60
52973;DHT22;38837;48.916;2.336;2023-11-21T08:46:56;31.30;33.60
52973;DHT22;38837;48.916;2.336;2023-11-21T08:48:58;31.40;33.60
52973;DHT22;38837;48.916;2.336;2023-11-21T08:50:59;31.40;33.50
52973;DHT22;38837;48.916;2.336;2023-11-21T08:53:01;31.40;33.50
52973;DHT22;38837;48.916;2.336;2023-11-21T08:55:04;31.40;33.60
52973;DHT22;38837;48.916;2.336;2023-11-21T08:57:09;31.40;33.60
52973;DHT22;38837;48.916;2.336;2023-11-21T08:59:11;31.30;33.50
52973;DHT22;38837;48.916;2.336;2023-11-21T09:01:16;31.30;33.70
52973;DHT22;38837;48.916;2.336;2023-11-21T09:03:19;31.20;33.70
52973;DHT22;38837;48.916;2.336;2023-11-21T09:05:20;31.20;33.70
52973;DHT22;38837;48.916;2.336;2023-11-21T09:07:23;31.30;33.70
52973;DHT22;38837;48.916;2.336;2023-11-21T09:09:24;31.30;33.70
52973;DHT22;38837;48.916;2.336;2023-11-21T09:11:26;31.30;33.70
52973;DHT22;38837;48.916;2.336;2023-11-21T09:13:35;31.40;33.70
52973;DHT22;38837;48.916;2.336;2023-11-21T09:15:37;31.30;33.60
52973;DHT22;38837;48.916;2.336;2023-11-21T09:17:39;31.40;33.60
52973;DHT22;38837;48.916;2.336;2023-11-21T09:19:42;31.40;33.60
52973;DHT22;38837;48.916;2.336;2023-11-21T09:21:51;31.40;33.60
52973;DHT22;38837;48.916;2.336;2023-11-21T09:23:53;31.30;33.60
52973;DHT22;38837;48.916;2.336;2023-11-21T09:25:55;31.30;33.60
52973;DHT22;38837;48.916;2.336;2023-11-21T09:27:59;31.30;33.70
52973;DHT22;38837;48.916;2.336;2023-11-21T09:30:01;31.30;33.70
52973;DHT22;38837;48.916;2.336;2023-11-21T09:32:05;31.30;33.70
52973;DHT22;38837;48.916;2.336;2023-11-21T09:34:08;31.40;33.70
52973;DHT22;38837;48.916;2.336;2023-11-21T09:36:13;31.40;33.70
52973;DHT22;38837;48.916;2.336;2023-11-21T09:38:16;31.40;33.70
52973;DHT22;38837;48.916;2.336;2023-11-21T09:40:21;31.50;33.70
52973;DHT22;38837;48.916;2.336;2023-11-21T09:42:31;31.40;33.60
52973;DHT22;38837;48.916;2.336;2023-11-21T09:44:44;31.40;33.60
52973;DHT22;38837;48.916;2.336;2023-11-21T09:46:48;31.40;34.20
52973;DHT22;38837;48.916;2.336;2023-11-21T09:48:51;31.40;33.60
52973;DHT22;38837;48.916;2.336;2023-11-21T09:50:59;31.40;33.60
52973;DHT22;38837;48.916;2.336;2023-11-21T09:53:18;31.40;33.70
52973;DHT22;38837;48.916;2.336;2023-11-21T09:55:24;31.40;33.70
52973;DHT22;38837;48.916;2.336;2023-11-21T09:57:29;31.40;33.70
52973;DHT22;38837;48.916;2.336;2023-11-21T09:59:32;31.40;33.70
52973;DHT22;38837;48.916;2.336;2023-11-21T10:01:36;31.40;33.70
52973;DHT22;38837;48.916;2.336;2023-11-21T10:03:39;31.40;33.70
52973;DHT22;38837;48.916;2.336;2023-11-21T10:05:45;31.40;33.70
52973;DHT22;38837;48.916;2.336;2023-11-21T10:07:53;31.40;33.70
52973;DHT22;38837;48.916;2.336;2023-11-21T10:09:55;31.40;33.80
52973;DHT22;38837;48.916;2.336;2023-11-21T10:11:58;31.30;33.80
52973;DHT22;38837;48.916;2.336;2023-11-21T10:14:02;31.30;33.80
52973;DHT22;38837;48.916;2.336;2023-11-21T10:16:07;31.30;33.90
52973;DHT22;38837;48.916;2.336;2023-11-21T10:18:14;31.30;33.90
52973;DHT22;38837;48.916;2.336;2023-11-21T10:20:17;31.30;33.90
52973;DHT22;38837;48.916;2.336;2023-11-21T10:22:20;31.40;33.90
52973;DHT22;38837;48.916;2.336;2023-11-21T10:24:23;31.40;33.80
52973;DHT22;38837;48.916;2.336;2023-11-21T10:26:27;31.40;33.70
52973;DHT22;38837;48.916;2.336;2023-11-21T10:28:35;31.40;33.70
52973;DHT22;38837;48.916;2.336;2023-11-21T10:30:39;31.50;33.80
52973;DHT22;38837;48.916;2.336;2023-11-21T10:32:42;31.50;34.30
52973;DHT22;38837;48.916;2.336;2023-11-21T10:34:55;31.40;33.70
52973;DHT22;38837;48.916;2.336;2023-11-21T10:36:58;31.40;33.80
52973;DHT22;38837;48.916;2.336;2023-11-21T10:39:00;31.40;33.80
52973;DHT22;38837;48.916;2.336;2023-11-21T10:41:02;31.40;33.90
52973;DHT22;38837;48.916;2.336;2023-11-21T10:43:06;31.40;33.90
52973;DHT22;38837;48.916;2.336;2023-11-21T10:45:10;31.40;33.80
52973;DHT22;38837;48.916;2.336;2023-11-21T10:47:16;31.40;34.40
52973;DHT22;38837;48.916;2.336;2023-11-21T10:49:21;31.40;33.80
52973;DHT22;38837;48.916;2.336;2023-11-21T10:51:23;31.50;33.80
52973;DHT22;38837;48.916;2.336;2023-11-21T10:53:29;31.50;33.90
52973;DHT22;38837;48.916;2.336;2023-11-21T10:55:32;31.50;33.80
52973;DHT22;38837;48.916;2.336;2023-11-21T10:57:34;31.50;33.80
52973;DHT22;38837;48.916;2.336;2023-11-21T10:59:36;31.40;33.80
52973;DHT22;38837;48.916;2.336;2023-11-21T11:01:38;31.40;33.80
52973;DHT22;38837;48.916;2.336;2023-11-21T11:03:41;31.40;33.90
52973;DHT22;38837;48.916;2.336;2023-11-21T11:05:44;31.40;33.90
52973;DHT22;38837;48.916;2.336;2023-11-21T11:08:09;31.40;33.90
52973;DHT22;38837;48.916;2.336;2023-11-21T11:10:13;31.40;33.90
52973;DHT22;38837;48.916;2.336;2023-11-21T11:12:16;31.40;33.90
52973;DHT22;38837;48.916;2.336;2023-11-21T11:14:19;31.40;33.90
52973;DHT22;38837;48.916;2.336;2023-11-21T11:16:22;31.50;33.90
52973;DHT22;38837;48.916;2.336;2023-11-21T11:18:26;31.50;33.90
52973;DHT22;38837;48.916;2.336;2023-11-21T11:20:34;31.60;33.90
52973;DHT22;38837;48.916;2.336;2023-11-21T11:25:27;31.50;33.90
52973;DHT22;38837;48.916;2.336;2023-11-21T11:27:52;31.40;33.80
52973;DHT22;38837;48.916;2.336;2023-11-21T11:32:16;31.40;34.00
52973;DHT22;38837;48.916;2.336;2023-11-21T11:34:29;31.40;34.10
52973;DHT22;38837;48.916;2.336;2023-11-21T11:36:43;31.40;34.00
52973;DHT22;38837;48.916;2.336;2023-11-21T11:38:46;31.50;34.00
52973;DHT22;38837;48.916;2.336;2023-11-21T11:40:53;31.50;34.00
52973;DHT22;38837;48.916;2.336;2023-11-21T11:42:58;31.40;33.90
52973;DHT22;38837;48.916;2.336;2023-11-21T11:45:17;31.50;34.00
52973;DHT22;38837;48.916;2.336;2023-11-21T11:47:31;31.50;34.00
52973;DHT22;38837;48.916;2.336;2023-11-21T11:50:05;31.50;34.00
52973;DHT22;38837;48.916;2.336;2023-11-21T11:52:32;31.40;34.00
52973;DHT22;38837;48.916;2.336;2023-11-21T11:54:37;31.40;34.00
52973;DHT22;38837;48.916;2.336;2023-11-21T11:56:39;31.40;34.00
52973;DHT22;38837;48.916;2.336;2023-11-21T11:58:42;31.40;34.10
52973;DHT22;38837;48.916;2.336;2023-11-21T12:00:44;31.40;34.00
52973;DHT22;38837;48.916;2.336;2023-11-21T12:02:49;31.50;34.00
52973;DHT22;38837;48.916;2.336;2023-11-21T12:04:55;31.40;34.00
52973;DHT22;38837;48.916;2.336;2023-11-21T12:07:00;31.40;34.10
52973;DHT22;38837;48.916;2.336;2023-11-21T12:09:04;31.30;34.10
52973;DHT22;38837;48.916;2.336;2023-11-21T12:11:06;31.30;34.20
52973;DHT22;38837;48.916;2.336;2023-11-21T12:13:10;31.20;34.10
52973;DHT22;38837;48.916;2.336;2023-11-21T12:15:14;31.30;34.20
52973;DHT22;38837;48.916;2.336;2023-11-21T12:17:16;31.20;34.80
52973;DHT22;38837;48.916;2.336;2023-11-21T12:19:18;31.30;34.40
52973;DHT22;38837;48.916;2.336;2023-11-21T12:21:20;31.30;34.20
52973;DHT22;38837;48.916;2.336;2023-11-21T12:23:24;31.30;34.00
52973;DHT22;38837;48.916;2.336;2023-11-21T12:25:28;31.40;34.10
52973;DHT22;38837;48.916;2.336;2023-11-21T12:27:34;31.50;34.10
52973;DHT22;38837;48.916;2.336;2023-11-21T12:29:36;31.60;34.10
52973;DHT22;38837;48.916;2.336;2023-11-21T12:31:39;31.60;34.00
52973;DHT22;38837;48.916;2.336;2023-11-21T12:33:42;31.60;34.00
52973;DHT22;38837;48.916;2.336;2023-11-21T12:35:44;31.60;34.20
52973;DHT22;38837;48.916;2.336;2023-11-21T12:37:46;31.70;34.20
52973;DHT22;38837;48.916;2.336;2023-11-21T12:39:51;31.70;33.70
52973;DHT22;38837;48.916;2.336;2023-11-21T12:41:55;31.70;34.00
52973;DHT22;38837;48.916;2.336;2023-11-21T12:43:57;31.80;33.90
52973;DHT22;38837;48.916;2.336;2023-11-21T12:46:09;31.60;33.60
52973;DHT22;38837;48.916;2.336;2023-11-21T12:48:12;31.80;33.60
52973;DHT22;38837;48.916;2.336;2023-11-21T12:50:14;31.90;33.40
52973;DHT22;38837;48.916;2.336;2023-11-21T12:52:16;31.80;33.70
52973;DHT22;38837;48.916;2.336;2023-11-21T12:54:18;31.50;33.60
52973;DHT22;38837;48.916;2.336;2023-11-21T12:56:21;31.40;33.70
52973;DHT22;38837;48.916;2.336;2023-11-21T12:58:29;31.30;33.50
52973;DHT22;38837;48.916;2.336;2023-11-21T13:00:34;31.10;33.90
52973;DHT22;38837;48.916;2.336;2023-11-21T13:02:40;31.10;33.70
52973;DHT22;38837;48.916;2.336;2023-11-21T13:04:52;31.10;33.80